Terminal Aerodrome Forecast
Issued by NWS

Home | Current Version | Previous Version | Text Only | Print | Product List | Glossary On
Versions: 1 2 3 4 5 6 7 8 9 10 11 12 13 14 15
000
FTUS45 KABQ 242329
TAFAEG
TAF
KAEG 242329Z 2500/2524 24022G32KT P6SM SCT050
     FM250100 26016KT P6SM BKN050
     FM250900 28008KT P6SM BKN040
     FM251600 27012KT P6SM SCT040
     FM251900 29018G26KT P6SM BKN100=

USA.gov is the U.S. government's official web portal to all federal, state and local government web resources and services.